Time;durP1;ratioP1;P1;durP2;ratioP2;P2;SDS_P1;SDS_P2;PMS_P1;PMS_P2;Temp;Humidity;BMP_temperature;BMP_pressure;BME280_temperature;BME280_humidity;BME280_pressure;Samples;Min_cycle;Max_cycle;Signal;HPM_P1;HPM_P2
2022/01/03 00:01:44;;;;;;;14.40;1.67;;;8.90;99.90;;;;;;5033225;28;20045;-80
2022/01/03 00:04:11;;;;;;;15.40;2.33;;;9.00;99.90;;;;;;5034414;28;20057;-80
2022/01/03 00:06:38;;;;;;;9.25;2.25;;;9.00;99.90;;;;;;5017439;28;20405;-80
2022/01/03 00:09:05;;;;;;;18.00;2.47;;;9.00;99.90;;;;;;5017548;28;20128;-80
2022/01/03 00:11:31;;;;;;;14.38;3.10;;;9.10;99.90;;;;;;5033849;28;20104;-80
2022/01/03 00:13:57;;;;;;;21.65;3.40;;;9.10;99.90;;;;;;5033773;28;20057;-80
2022/01/03 00:16:24;;;;;;;23.60;3.10;;;9.20;99.90;;;;;;5016840;28;20049;-81
2022/01/03 00:18:54;;;;;;;19.05;3.45;;;9.20;99.90;;;;;;5050356;28;20072;-80
2022/01/03 00:21:25;;;;;;;11.88;2.63;;;9.30;99.90;;;;;;5033334;28;20045;-80
2022/01/03 00:24:09;;;;;;;19.92;2.70;;;9.30;99.90;;;;;;5033822;28;20053;-80
2022/01/03 00:26:36;;;;;;;13.77;2.63;;;9.30;99.90;;;;;;5050863;28;20072;-80
2022/01/03 00:29:15;;;;;;;17.27;3.28;;;9.30;99.90;;;;;;5050149;28;20045;-80
2022/01/03 00:31:42;;;;;;;14.63;2.25;;;9.40;99.90;;;;;;5050111;28;20049;-81
2022/01/03 00:34:10;;;;;;;18.13;3.08;;;9.40;99.90;;;;;;5016960;28;20152;-80
2022/01/03 00:36:38;;;;;;;15.43;3.10;;;9.50;99.90;;;;;;5050535;28;20128;-81
2022/01/03 00:39:07;;;;;;;14.93;2.60;;;9.50;99.90;;;;;;5050165;28;20045;-81
2022/01/03 00:41:33;;;;;;;21.13;3.30;;;9.50;99.90;;;;;;5049531;28;20080;-80
2022/01/03 00:43:58;;;;;;;20.73;2.75;;;9.60;99.90;;;;;;5033346;28;20142;-80
2022/01/03 00:46:26;;;;;;;16.90;2.88;;;9.60;99.90;;;;;;5049398;28;20128;-82
2022/01/03 00:48:54;;;;;;;21.02;3.50;;;9.60;99.90;;;;;;5033143;28;20091;-80
2022/01/03 00:51:20;;;;;;;28.85;3.10;;;9.60;99.90;;;;;;5016805;28;20556;-80
2022/01/03 00:53:49;;;;;;;18.88;2.58;;;9.60;99.90;;;;;;5033194;28;20088;-80
2022/01/03 00:56:33;;;;;;;22.70;3.30;;;9.60;99.90;;;;;;5032840;28;20049;-81
2022/01/03 00:59:04;;;;;;;24.05;2.60;;;9.70;99.90;;;;;;5033218;28;20084;-80
2022/01/03 01:01:34;;;;;;;23.25;2.78;;;9.70;99.90;;;;;;5016616;28;20045;-80
2022/01/03 01:04:02;;;;;;;23.45;2.78;;;9.70;99.90;;;;;;5032792;28;20053;-80
2022/01/03 01:06:33;;;;;;;26.38;2.63;;;9.70;99.90;;;;;;5032747;28;20053;-80
2022/01/03 01:09:01;;;;;;;22.92;2.55;;;9.70;99.90;;;;;;5049831;28;20080;-80
2022/01/03 01:11:28;;;;;;;27.60;2.80;;;9.70;99.90;;;;;;5016436;28;20044;-80
2022/01/03 01:13:55;;;;;;;21.25;3.05;;;9.70;99.90;;;;;;5032566;28;20049;-80
2022/01/03 01:16:22;;;;;;;24.85;2.95;;;9.70;99.90;;;;;;5016430;28;20046;-80
2022/01/03 01:18:49;;;;;;;19.98;2.42;;;9.80;99.90;;;;;;5032368;28;20098;-81
2022/01/03 01:21:15;;;;;;;22.65;3.28;;;9.70;99.90;;;;;;5032454;28;20511;-80
2022/01/03 01:23:42;;;;;;;19.65;2.95;;;9.80;99.90;;;;;;5016290;28;20053;-80
2022/01/03 01:28:52;;;;;;;23.13;2.97;;;9.80;99.90;;;;;;5018883;28;20056;-80
2022/01/03 01:31:23;;;;;;;26.85;2.97;;;9.80;99.90;;;;;;5016226;28;20053;-81
2022/01/03 01:33:53;;;;;;;28.77;3.45;;;9.80;99.90;;;;;;5016177;28;20056;-81
2022/01/03 01:36:22;;;;;;;21.50;4.10;;;9.80;99.90;;;;;;5049727;28;20456;-80
2022/01/03 01:38:51;;;;;;;20.38;2.72;;;9.80;99.90;;;;;;5032687;28;20154;-80
2022/01/03 01:41:19;;;;;;;26.73;3.17;;;9.90;99.90;;;;;;5032459;28;20049;-81
2022/01/03 01:43:47;;;;;;;24.17;3.08;;;9.90;99.90;;;;;;5032784;28;20484;-81
2022/01/03 01:46:16;;;;;;;23.13;2.60;;;9.90;99.90;;;;;;5015784;28;20365;-81
2022/01/03 01:48:44;;;;;;;28.00;3.42;;;9.90;99.90;;;;;;5015522;28;20049;-81
2022/01/03 01:51:12;;;;;;;26.63;3.45;;;9.90;99.90;;;;;;5032570;28;20049;-81
2022/01/03 01:53:45;;;;;;;24.20;3.78;;;9.90;99.90;;;;;;5049078;28;20111;-80
2022/01/03 01:56:36;;;;;;;23.92;3.38;;;9.90;99.90;;;;;;5032486;28;20054;-80
2022/01/03 01:59:10;;;;;;;25.05;2.75;;;9.90;99.90;;;;;;5049091;28;20045;-80
2022/01/03 02:01:48;;;;;;;26.75;3.45;;;9.90;99.90;;;;;;5032242;28;20049;-80
2022/01/03 02:04:17;;;;;;;33.55;3.55;;;9.90;99.90;;;;;;5016673;28;20052;-80
2022/01/03 02:06:48;;;;;;;36.70;4.53;;;10.00;99.90;;;;;;5033032;28;20046;-80
2022/01/03 02:09:29;;;;;;;33.10;3.67;;;10.00;99.90;;;;;;5032437;28;20154;-80
2022/01/03 02:11:57;;;;;;;26.65;3.45;;;10.10;99.90;;;;;;5048992;28;20041;-80
2022/01/03 02:14:25;;;;;;;22.25;3.05;;;10.00;99.90;;;;;;5032061;28;20058;-80
2022/01/03 02:16:52;;;;;;;24.02;3.22;;;10.00;99.90;;;;;;5048385;28;20042;-81
2022/01/03 02:19:19;;;;;;;28.92;3.60;;;10.00;99.90;;;;;;5048546;28;20223;-80
2022/01/03 02:21:46;;;;;;;28.33;3.50;;;10.00;99.90;;;;;;5031943;28;20080;-80
2022/01/03 02:24:12;;;;;;;27.48;3.72;;;10.00;99.90;;;;;;5048819;28;20045;-80
2022/01/03 02:26:38;;;;;;;24.95;3.58;;;10.00;99.90;;;;;;5019392;28;20056;-80
2022/01/03 02:29:05;;;;;;;25.75;3.00;;;10.00;99.90;;;;;;5035900;28;20091;-81
2022/01/03 02:31:32;;;;;;;28.65;4.13;;;10.10;99.90;;;;;;5002796;28;20045;-80
2022/01/03 02:34:00;;;;;;;28.95;3.58;;;10.00;99.90;;;;;;5018866;28;20057;-81
2022/01/03 02:36:29;;;;;;;21.38;3.50;;;10.10;99.90;;;;;;5019192;28;20516;-80
2022/01/03 02:38:55;;;;;;;26.48;2.85;;;10.10;99.90;;;;;;5035252;28;20068;-80
2022/01/03 02:41:20;;;;;;;23.85;3.45;;;10.10;99.90;;;;;;5019020;28;20045;-81
2022/01/03 02:43:48;;;;;;;26.65;4.15;;;10.10;99.90;;;;;;5052178;28;20495;-81
2022/01/03 02:46:14;;;;;;;35.67;4.10;;;10.10;99.90;;;;;;5051604;28;20045;-81
2022/01/03 02:48:40;;;;;;;32.05;4.32;;;10.10;99.90;;;;;;5035169;28;20049;-81
2022/01/03 02:51:06;;;;;;;31.05;3.97;;;10.20;99.90;;;;;;5019655;28;20053;-81
2022/01/03 02:53:31;;;;;;;28.05;4.20;;;10.10;99.90;;;;;;5019190;28;20499;-81
2022/01/03 02:55:57;;;;;;;28.98;3.22;;;10.00;99.90;;;;;;5002732;28;20129;-80
2022/01/03 02:58:23;;;;;;;26.63;3.35;;;10.10;99.90;;;;;;5018864;28;20503;-80
2022/01/03 03:00:50;;;;;;;35.00;3.85;;;10.00;99.90;;;;;;5034590;28;20053;-80
2022/01/03 03:03:18;;;;;;;32.17;5.03;;;10.10;99.90;;;;;;5051244;28;20520;-81
2022/01/03 03:05:44;;;;;;;30.95;3.83;;;10.00;99.90;;;;;;5018812;28;20476;-81
2022/01/03 03:08:11;;;;;;;24.17;3.35;;;10.00;99.90;;;;;;5051753;28;20099;-80
2022/01/03 03:10:38;;;;;;;33.30;3.83;;;9.90;99.90;;;;;;5018757;28;20124;-80
2022/01/03 03:13:04;;;;;;;33.53;3.83;;;10.00;99.90;;;;;;5052136;28;20052;-80
2022/01/03 03:15:32;;;;;;;34.70;4.07;;;9.90;99.90;;;;;;5035307;28;20041;-81
2022/01/03 03:17:59;;;;;;;27.40;3.47;;;9.90;99.90;;;;;;5017870;28;20471;-80
2022/01/03 03:20:30;;;;;;;35.47;3.88;;;9.90;99.90;;;;;;5018289;28;20049;-81
2022/01/03 03:22:58;;;;;;;25.50;3.72;;;9.90;99.90;;;;;;5002124;28;20038;-81
2022/01/03 03:25:29;;;;;;;34.55;3.80;;;9.90;99.90;;;;;;5018415;28;20045;-81
2022/01/03 03:28:00;;;;;;;42.55;3.78;;;9.90;99.90;;;;;;5035107;28;20068;-81
2022/01/03 03:30:27;;;;;;;24.83;4.10;;;9.90;99.90;;;;;;5051571;28;20488;-81
2022/01/03 03:33:00;;;;;;;27.73;4.15;;;9.90;99.90;;;;;;5018061;28;20060;-81
2022/01/03 03:35:26;;;;;;;32.53;3.72;;;9.80;99.90;;;;;;5018177;28;20053;-81
2022/01/03 03:37:52;;;;;;;35.10;4.07;;;9.80;99.90;;;;;;5050859;28;20053;-81
2022/01/03 03:40:18;;;;;;;31.30;4.60;;;9.80;99.90;;;;;;5034281;28;20056;-81
2022/01/03 03:42:44;;;;;;;34.25;3.17;;;9.70;99.90;;;;;;5034378;28;20048;-81
2022/01/03 03:45:11;;;;;;;33.53;3.80;;;9.80;99.90;;;;;;5034244;28;20045;-81
2022/01/03 03:47:37;;;;;;;29.88;3.85;;;9.70;99.90;;;;;;5033771;28;20064;-81
2022/01/03 03:50:04;;;;;;;32.33;3.38;;;9.80;99.90;;;;;;5017889;28;20050;-81
2022/01/03 03:52:30;;;;;;;35.00;4.40;;;9.70;99.90;;;;;;5050876;28;20108;-81
2022/01/03 03:54:56;;;;;;;31.25;3.60;;;9.70;99.90;;;;;;5050856;28;20041;-81
2022/01/03 03:57:21;;;;;;;31.08;3.80;;;9.80;99.90;;;;;;5017692;28;20049;-82
2022/01/03 03:59:47;;;;;;;38.03;4.65;;;9.60;99.90;;;;;;5034314;28;20076;-82
2022/01/03 04:02:13;;;;;;;33.47;3.75;;;9.70;99.90;;;;;;5017272;28;20057;-82
2022/01/03 04:04:39;;;;;;;35.88;4.38;;;9.60;99.90;;;;;;5033732;28;20111;-82
2022/01/03 04:07:04;;;;;;;37.00;4.07;;;9.60;99.90;;;;;;5034663;28;20041;-82
2022/01/03 04:09:30;;;;;;;34.15;3.92;;;9.60;99.90;;;;;;5018244;28;20481;-82
2022/01/03 04:11:57;;;;;;;31.75;3.80;;;9.70;99.90;;;;;;5051154;28;20041;-81
2022/01/03 04:14:22;;;;;;;41.33;4.13;;;9.60;99.90;;;;;;5017540;28;20053;-81
2022/01/03 04:16:48;;;;;;;45.72;4.88;;;9.60;99.90;;;;;;5016635;28;20122;-82
2022/01/03 04:19:14;;;;;;;30.35;4.13;;;9.60;99.90;;;;;;5017339;28;20041;-82
2022/01/03 04:21:40;;;;;;;37.00;3.60;;;9.40;99.90;;;;;;5033370;28;20045;-82
2022/01/03 04:24:07;;;;;;;34.00;4.40;;;9.60;99.90;;;;;;5033639;28;20505;-82
2022/01/03 04:26:34;;;;;;;35.95;4.82;;;9.60;99.90;;;;;;5017131;28;20485;-82
2022/01/03 04:29:00;;;;;;;32.72;4.30;;;9.60;99.90;;;;;;5017270;28;20049;-82
2022/01/03 04:31:26;;;;;;;36.90;4.20;;;9.50;99.90;;;;;;5017136;28;20059;-82
2022/01/03 04:33:51;;;;;;;37.90;4.32;;;9.60;99.90;;;;;;5033268;28;20049;-82
2022/01/03 04:36:17;;;;;;;43.63;4.70;;;9.60;99.90;;;;;;5033538;28;20080;-82
2022/01/03 04:38:43;;;;;;;42.72;4.35;;;9.70;99.90;;;;;;5049773;28;20046;-82
2022/01/03 04:41:10;;;;;;;32.38;4.63;;;9.70;99.90;;;;;;5017033;28;20131;-82
2022/01/03 04:43:36;;;;;;;42.10;4.35;;;9.70;99.90;;;;;;5049716;28;20057;-82
2022/01/03 04:46:02;;;;;;;39.58;3.60;;;9.70;99.90;;;;;;5017043;28;20049;-81
2022/01/03 04:48:28;;;;;;;34.65;4.70;;;9.70;99.90;;;;;;5032877;28;20045;-82
2022/01/03 04:50:54;;;;;;;28.42;3.88;;;9.70;99.90;;;;;;4984549;28;20436;-81
2022/01/03 04:53:25;;;;;;;30.38;3.80;;;9.70;99.90;;;;;;5017246;28;20480;-82
2022/01/03 04:55:51;;;;;;;33.03;4.55;;;9.60;99.90;;;;;;5016869;28;20049;-82
2022/01/03 04:58:17;;;;;;;30.50;3.78;;;9.60;99.90;;;;;;5016711;28;20362;-82
2022/01/03 05:00:42;;;;;;;40.75;5.57;;;9.70;99.90;;;;;;5032878;28;20106;-82
2022/01/03 05:03:09;;;;;;;39.92;4.95;;;9.70;99.90;;;;;;5016290;28;20061;-82
2022/01/03 05:05:34;;;;;;;34.35;4.53;;;9.70;99.90;;;;;;5032968;28;20095;-82
2022/01/03 05:08:00;;;;;;;32.40;4.63;;;9.70;99.90;;;;;;5032900;28;20092;-82
2022/01/03 05:10:26;;;;;;;36.28;4.38;;;9.70;99.90;;;;;;5016543;28;20489;-82
2022/01/03 05:12:51;;;;;;;40.25;4.90;;;9.70;99.90;;;;;;5016624;28;20049;-82
2022/01/03 05:15:17;;;;;;;34.78;4.28;;;9.80;99.90;;;;;;5000345;28;20053;-82
2022/01/03 05:17:43;;;;;;;46.92;4.50;;;9.80;99.90;;;;;;5046800;28;20052;-82
2022/01/03 05:20:09;;;;;;;39.08;4.18;;;9.80;99.90;;;;;;5031264;28;20109;-82
2022/01/03 05:22:35;;;;;;;30.58;5.30;;;9.80;99.90;;;;;;5032774;28;20104;-82
2022/01/03 05:25:00;;;;;;;34.10;4.32;;;9.70;99.90;;;;;;5033097;28;20546;-82
2022/01/03 05:27:26;;;;;;;43.10;6.30;;;9.70;99.90;;;;;;5017063;28;20042;-81
2022/01/03 05:29:52;;;;;;;37.70;4.97;;;9.60;99.90;;;;;;5016419;28;20409;-82
2022/01/03 05:32:17;;;;;;;38.22;4.15;;;9.60;99.90;;;;;;5033548;28;20435;-82
2022/01/03 05:34:43;;;;;;;39.85;4.70;;;9.70;99.90;;;;;;5033223;28;20045;-82
2022/01/03 05:37:09;;;;;;;40.63;4.78;;;9.60;99.90;;;;;;5032549;28;20574;-81
2022/01/03 05:39:35;;;;;;;32.10;4.13;;;9.60;99.90;;;;;;5016606;28;20085;-82
2022/01/03 05:42:01;;;;;;;46.35;4.57;;;9.60;99.90;;;;;;5000100;28;20041;-81
2022/01/03 05:44:27;;;;;;;42.03;5.05;;;9.60;99.90;;;;;;5016114;28;20096;-82
2022/01/03 05:46:52;;;;;;;32.38;4.30;;;9.60;99.90;;;;;;5032461;28;20054;-82
2022/01/03 05:49:18;;;;;;;42.13;4.65;;;9.70;99.90;;;;;;5033176;28;20080;-82
2022/01/03 05:51:44;;;;;;;38.33;4.22;;;9.60;99.90;;;;;;5032794;28;20053;-82
2022/01/03 05:54:10;;;;;;;50.50;6.32;;;9.60;99.90;;;;;;5032422;28;20053;-82
2022/01/03 05:56:36;;;;;;;42.17;5.38;;;9.60;99.90;;;;;;5033026;28;20102;-82
2022/01/03 05:59:01;;;;;;;30.92;5.07;;;9.50;99.90;;;;;;5032665;28;20048;-81
2022/01/03 06:01:28;;;;;;;45.40;5.38;;;9.60;99.90;;;;;;5035957;28;20045;-82
2022/01/03 06:04:01;;;;;;;42.83;4.88;;;9.60;99.90;;;;;;5035809;28;20115;-81
2022/01/03 06:09:16;;;;;;;48.80;5.93;;;9.60;99.90;;;;;;5036170;28;20122;-82
2022/01/03 06:11:41;;;;;;;37.17;5.05;;;9.60;99.90;;;;;;5036131;28;20084;-82
2022/01/03 06:14:07;;;;;;;39.25;5.55;;;9.70;99.90;;;;;;5036032;28;20049;-82
2022/01/03 06:16:33;;;;;;;39.83;4.95;;;9.70;99.90;;;;;;5052398;28;20380;-82
2022/01/03 06:18:58;;;;;;;38.55;5.15;;;9.60;99.90;;;;;;5002755;28;20099;-81
2022/01/03 06:21:24;;;;;;;35.42;5.10;;;9.60;99.90;;;;;;5035707;28;20051;-82
2022/01/03 06:23:50;;;;;;;36.90;5.60;;;9.60;99.90;;;;;;5003054;28;20055;-82
2022/01/03 06:26:16;;;;;;;37.72;4.97;;;9.70;99.90;;;;;;5019522;28;20045;-82
2022/01/03 06:28:41;;;;;;;47.83;5.28;;;9.60;99.90;;;;;;5036350;28;20473;-82
2022/01/03 06:31:07;;;;;;;45.90;4.85;;;9.60;99.90;;;;;;5035484;28;20095;-82
2022/01/03 06:33:33;;;;;;;47.53;5.00;;;9.60;99.90;;;;;;5035692;28;20054;-82
2022/01/03 06:35:58;;;;;;;35.50;4.03;;;9.70;99.90;;;;;;5035718;28;20053;-82
2022/01/03 06:38:24;;;;;;;44.58;6.30;;;9.60;99.90;;;;;;5035759;28;20041;-82
2022/01/03 06:40:49;;;;;;;43.30;4.85;;;9.60;99.90;;;;;;5018888;28;20499;-82
2022/01/03 06:43:15;;;;;;;42.60;5.07;;;9.70;99.90;;;;;;5018878;28;20037;-82
2022/01/03 06:45:41;;;;;;;28.83;4.28;;;9.70;99.90;;;;;;5035564;28;20140;-82
2022/01/03 06:48:06;;;;;;;43.38;4.68;;;9.50;99.90;;;;;;5018576;28;20041;-82
2022/01/03 06:50:34;;;;;;;41.00;4.30;;;9.50;99.90;;;;;;5035426;28;20050;-82
2022/01/03 06:52:59;;;;;;;34.55;3.95;;;9.50;99.90;;;;;;5019266;28;20054;-82
2022/01/03 06:55:25;;;;;;;39.33;4.82;;;9.50;99.90;;;;;;5002782;28;20191;-82
2022/01/03 06:57:52;;;;;;;41.70;4.90;;;9.40;99.90;;;;;;5035414;28;20045;-82
2022/01/03 07:00:17;;;;;;;36.40;5.40;;;9.40;99.90;;;;;;5035559;28;20049;-82
2022/01/03 07:02:43;;;;;;;41.53;5.07;;;9.40;99.90;;;;;;5034913;28;20405;-82
2022/01/03 07:05:10;;;;;;;56.63;5.18;;;9.40;99.90;;;;;;5035103;28;20053;-82
2022/01/03 07:07:36;;;;;;;41.42;4.47;;;9.40;99.90;;;;;;5035070;28;20045;-82
2022/01/03 07:10:03;;;;;;;48.20;5.68;;;9.40;99.90;;;;;;5035218;28;20050;-82
2022/01/03 07:12:32;;;;;;;38.08;4.80;;;9.30;99.90;;;;;;5033735;28;20041;-82
2022/01/03 07:20:09;;;;;;;40.45;5.68;;;9.30;99.90;;;;;;5020969;28;20459;-82
2022/01/03 07:22:39;;;;;;;35.50;5.28;;;9.30;99.90;;;;;;5034869;28;20045;-81
2022/01/03 07:25:09;;;;;;;46.20;5.47;;;9.40;99.90;;;;;;5034800;28;20116;-81
2022/01/03 07:27:37;;;;;;;34.05;4.35;;;9.40;99.90;;;;;;5034635;28;20382;-81
2022/01/03 07:30:04;;;;;;;42.28;5.50;;;9.50;99.90;;;;;;5035292;28;20081;-82
2022/01/03 07:32:30;;;;;;;56.55;6.40;;;9.40;99.90;;;;;;5034719;28;20048;-82
2022/01/03 07:34:55;;;;;;;31.73;4.47;;;9.40;99.90;;;;;;5034772;28;20404;-82
2022/01/03 07:37:21;;;;;;;46.65;5.25;;;9.50;99.90;;;;;;5034805;28;20095;-82
2022/01/03 07:39:47;;;;;;;49.38;5.63;;;9.50;99.90;;;;;;5034586;28;20045;-82
2022/01/03 07:42:12;;;;;;;53.85;5.63;;;9.60;99.90;;;;;;5034117;28;20442;-82
2022/01/03 07:44:38;;;;;;;42.08;5.07;;;9.60;99.90;;;;;;5017992;28;20045;-82
2022/01/03 07:47:05;;;;;;;42.17;5.05;;;9.50;99.90;;;;;;5017512;28;20107;-83
2022/01/03 07:49:31;;;;;;;54.45;6.25;;;9.50;99.90;;;;;;5034443;28;20507;-83
2022/01/03 07:51:58;;;;;;;45.05;5.18;;;9.50;99.90;;;;;;5034278;28;20501;-82
2022/01/03 07:54:24;;;;;;;53.50;6.35;;;9.50;99.90;;;;;;5034286;28;20045;-82
2022/01/03 07:56:49;;;;;;;39.85;5.47;;;9.50;99.90;;;;;;5001528;28;20477;-82
2022/01/03 07:59:15;;;;;;;42.70;5.05;;;9.40;99.90;;;;;;5017479;28;20065;-83
2022/01/03 08:01:41;;;;;;;48.85;6.15;;;9.50;99.90;;;;;;5033720;28;20042;-83
2022/01/03 08:04:07;;;;;;;53.08;6.22;;;9.60;99.90;;;;;;5017094;28;20072;-82
2022/01/03 08:06:33;;;;;;;38.45;5.28;;;9.60;99.90;;;;;;5034000;28;20136;-82
2022/01/03 08:08:59;;;;;;;38.10;4.57;;;9.60;99.90;;;;;;5033939;28;20108;-83
2022/01/03 08:11:26;;;;;;;40.00;5.18;;;9.60;99.90;;;;;;5033889;28;20520;-83
2022/01/03 08:13:53;;;;;;;38.53;4.60;;;9.60;99.90;;;;;;5033772;28;20080;-83
2022/01/03 08:16:19;;;;;;;32.83;5.15;;;9.70;99.90;;;;;;5001066;28;20540;-84
2022/01/03 08:18:44;;;;;;;42.40;5.15;;;9.70;99.90;;;;;;5033288;28;20141;-81
2022/01/03 08:21:10;;;;;;;39.42;4.95;;;9.80;99.90;;;;;;5033447;28;20068;-73
2022/01/03 08:23:36;;;;;;;39.00;5.28;;;9.70;99.90;;;;;;5033177;28;20049;-74
2022/01/03 08:26:02;;;;;;;46.22;5.95;;;9.80;99.90;;;;;;5033522;28;20104;-73
2022/01/03 08:28:28;;;;;;;40.38;4.78;;;9.90;99.90;;;;;;5034455;28;20056;-76
2022/01/03 08:30:54;;;;;;;39.95;5.25;;;9.90;99.90;;;;;;5033499;28;20049;-76
2022/01/03 08:33:19;;;;;;;42.60;4.32;;;9.80;99.90;;;;;;5033306;28;20052;-75
2022/01/03 08:35:45;;;;;;;42.90;5.18;;;9.90;99.90;;;;;;5033738;28;20057;-79
2022/01/03 08:38:11;;;;;;;37.53;5.25;;;10.00;99.90;;;;;;5024800;28;20106;-75
2022/01/03 08:40:36;;;;;;;49.70;6.20;;;10.00;99.90;;;;;;5036773;28;20362;-70
2022/01/03 08:43:02;;;;;;;40.72;5.00;;;10.00;99.90;;;;;;5033299;28;20056;-73
2022/01/03 08:45:28;;;;;;;37.95;4.15;;;9.90;99.90;;;;;;5034203;28;20068;-74
2022/01/03 08:47:54;;;;;;;41.38;4.90;;;9.90;99.90;;;;;;5032526;28;20050;-74
2022/01/03 08:50:20;;;;;;;42.83;5.07;;;9.90;99.90;;;;;;5033316;28;20093;-76
2022/01/03 08:52:48;;;;;;;54.67;5.80;;;9.90;99.90;;;;;;5033105;28;20056;-76
2022/01/03 08:55:14;;;;;;;37.50;4.90;;;9.90;99.90;;;;;;5033137;28;20084;-76
2022/01/03 08:57:41;;;;;;;38.35;4.97;;;10.00;99.90;;;;;;5032868;28;20091;-76
2022/01/03 09:00:08;;;;;;;40.65;5.30;;;10.00;99.90;;;;;;5033178;28;20053;-75
2022/01/03 09:02:34;;;;;;;39.63;4.35;;;10.00;99.90;;;;;;5032637;28;20451;-76
2022/01/03 09:05:00;;;;;;;44.88;4.75;;;10.00;99.90;;;;;;5033911;28;20058;-76
2022/01/03 09:07:26;;;;;;;37.08;3.85;;;10.10;99.90;;;;;;5032917;28;20111;-75
2022/01/03 09:09:51;;;;;;;31.42;4.97;;;10.10;99.90;;;;;;5033865;28;20463;-76
2022/01/03 09:12:17;;;;;;;41.10;4.78;;;10.20;99.90;;;;;;5034218;28;20075;-77
2022/01/03 09:14:43;;;;;;;35.85;4.20;;;10.10;99.90;;;;;;5016368;28;20102;-77
2022/01/03 09:17:09;;;;;;;48.17;5.18;;;10.20;99.90;;;;;;5033417;28;20060;-76
2022/01/03 09:19:35;;;;;;;32.95;5.18;;;10.20;99.90;;;;;;5032746;28;20057;-76
2022/01/03 09:22:19;;;;;;;38.22;5.05;;;10.30;99.90;;;;;;5032466;28;20053;-74
2022/01/03 09:28:48;;;;;;;34.97;4.70;;;10.30;99.90;;;;;;5032399;28;20049;-75
2022/01/03 09:30:23;;;;;;;38.78;4.32;;;10.10;99.90;;;;;;5033102;28;20057;-76
2022/01/03 09:32:49;;;;;;;35.28;4.00;;;10.10;99.90;;;;;;5032239;28;20053;-80
2022/01/03 09:35:15;;;;;;;33.33;3.88;;;10.20;99.90;;;;;;5034293;28;20103;-80
2022/01/03 09:37:41;;;;;;;38.20;4.53;;;10.20;99.90;;;;;;5036737;28;20054;-79
2022/01/03 09:40:08;;;;;;;32.97;4.15;;;10.20;99.90;;;;;;5036306;28;20049;-80
2022/01/03 09:42:34;;;;;;;43.38;4.90;;;10.30;99.90;;;;;;5036231;28;20054;-74
2022/01/03 09:45:07;;;;;;;45.42;5.22;;;10.30;99.90;;;;;;5036386;28;20123;-73
2022/01/03 09:47:38;;;;;;;32.30;4.55;;;10.40;99.90;;;;;;5037133;28;20088;-73
2022/01/03 09:50:04;;;;;;;34.88;4.85;;;10.40;99.90;;;;;;5036527;28;20432;-74
2022/01/03 09:52:30;;;;;;;37.08;4.95;;;10.50;99.90;;;;;;5037288;28;20045;-74
2022/01/03 09:54:57;;;;;;;40.05;4.95;;;10.40;99.90;;;;;;5036426;28;20063;-73
2022/01/03 09:57:25;;;;;;;34.55;4.15;;;10.30;99.90;;;;;;5036251;28;20051;-74
2022/01/03 09:59:50;;;;;;;32.17;4.57;;;10.30;99.90;;;;;;5036216;28;20124;-73
2022/01/03 10:02:17;;;;;;;33.88;4.10;;;10.40;99.90;;;;;;5035576;28;20137;-81
2022/01/03 10:04:44;;;;;;;35.80;4.68;;;10.50;99.90;;;;;;5036362;28;20060;-73
2022/01/03 10:07:11;;;;;;;34.72;4.63;;;10.40;99.90;;;;;;5036317;28;20488;-86
2022/01/03 10:09:42;;;;;;;31.65;4.05;;;10.30;99.90;;;;;;5036695;28;20111;-88
2022/01/03 10:12:13;;;;;;;38.33;4.43;;;10.10;99.90;;;;;;5036469;28;20052;-87
2022/01/03 10:14:40;;;;;;;31.73;3.75;;;10.10;99.90;;;;;;5037979;28;20107;-73
2022/01/03 10:17:07;;;;;;;30.55;4.60;;;10.10;99.90;;;;;;5037038;28;20102;-87
2022/01/03 10:19:49;;;;;;;33.70;4.53;;;10.20;99.90;;;;;;5036064;28;20049;-75
2022/01/03 10:22:21;;;;;;;24.15;3.25;;;10.50;99.90;;;;;;5019283;28;20092;-77
2022/01/03 10:24:46;;;;;;;30.38;3.60;;;10.50;99.90;;;;;;5035838;28;20045;-80
2022/01/03 10:27:12;;;;;;;35.08;4.32;;;10.30;99.90;;;;;;5019310;28;20475;-79
2022/01/03 10:29:40;;;;;;;33.85;4.35;;;10.30;99.90;;;;;;5019262;28;20145;-72
2022/01/03 10:32:09;;;;;;;36.28;3.90;;;10.50;99.90;;;;;;5036688;28;20103;-76
2022/01/03 10:34:35;;;;;;;28.23;3.92;;;10.60;99.90;;;;;;5035615;28;20139;-74
2022/01/03 10:37:11;;;;;;;34.53;4.30;;;10.70;99.90;;;;;;5035577;28;20125;-73
2022/01/03 10:39:36;;;;;;;33.63;3.90;;;10.80;99.90;;;;;;5036619;28;20057;-78
2022/01/03 10:42:14;;;;;;;26.40;3.60;;;10.80;99.90;;;;;;5035107;28;20397;-79
2022/01/03 10:44:41;;;;;;;31.20;3.88;;;10.80;99.90;;;;;;5018610;28;20509;-77
2022/01/03 10:47:27;;;;;;;35.53;5.13;;;10.70;99.90;;;;;;5035079;28;20160;-70
2022/01/03 10:49:53;;;;;;;31.65;4.78;;;10.70;99.90;;;;;;5035324;28;20127;-72
2022/01/03 10:52:27;;;;;;;31.15;3.88;;;10.90;99.90;;;;;;5035447;28;20133;-71
2022/01/03 10:55:19;;;;;;;31.83;4.55;;;10.80;99.90;;;;;;5035235;28;20049;-71
2022/01/03 10:57:51;;;;;;;40.05;4.78;;;10.70;99.90;;;;;;5035360;28;20057;-71
2022/01/03 11:00:22;;;;;;;30.20;4.32;;;10.70;99.90;;;;;;5035173;28;20133;-72
2022/01/03 11:05:47;;;;;;;37.47;4.70;;;10.70;99.90;;;;;;5037041;28;20132;-73
2022/01/03 11:10:59;;;;;;;31.88;5.13;;;10.70;99.90;;;;;;5034962;28;20053;-73
2022/01/03 11:13:24;;;;;;;39.97;4.60;;;10.80;99.90;;;;;;5036164;28;20111;-73
2022/01/03 11:15:58;;;;;;;38.35;4.88;;;10.80;99.90;;;;;;5034926;28;20485;-73
2022/01/03 11:18:26;;;;;;;42.63;5.05;;;10.80;99.90;;;;;;5034847;28;20049;-73
2022/01/03 11:21:13;;;;;;;36.08;4.60;;;10.80;99.90;;;;;;5034749;28;20056;-74
2022/01/03 11:23:44;;;;;;;33.22;4.40;;;10.80;99.90;;;;;;5035478;28;20075;-73
2022/01/03 11:26:15;;;;;;;36.33;4.22;;;10.80;99.90;;;;;;5018714;28;20119;-80
2022/01/03 11:28:42;;;;;;;31.48;4.50;;;10.80;99.90;;;;;;5037405;28;20041;-74
2022/01/03 11:31:09;;;;;;;26.17;3.78;;;10.80;99.90;;;;;;5034820;28;20049;-72
2022/01/03 11:33:37;;;;;;;44.97;4.50;;;10.80;99.90;;;;;;5034498;28;20041;-74
2022/01/03 11:36:03;;;;;;;29.67;3.78;;;10.80;99.90;;;;;;5017969;28;20056;-74
2022/01/03 11:38:31;;;;;;;25.38;3.95;;;10.90;99.90;;;;;;5035411;28;20416;-75
2022/01/03 11:41:03;;;;;;;27.73;4.00;;;10.90;99.90;;;;;;5034242;28;20528;-73
2022/01/03 11:43:33;;;;;;;35.90;4.47;;;10.90;99.90;;;;;;5034806;28;20088;-73
2022/01/03 11:46:00;;;;;;;29.95;3.53;;;11.00;99.90;;;;;;5034296;28;20512;-83
2022/01/03 11:48:26;;;;;;;28.40;3.40;;;11.00;99.90;;;;;;5033915;28;20055;-85
2022/01/03 11:50:54;;;;;;;33.20;4.22;;;10.90;99.90;;;;;;5039983;28;20089;-75
2022/01/03 11:53:23;;;;;;;37.45;4.53;;;10.90;99.90;;;;;;5034310;28;20106;-75
2022/01/03 11:55:54;;;;;;;35.60;3.53;;;10.90;99.90;;;;;;5034130;28;20076;-74
2022/01/03 11:58:50;;;;;;;41.15;4.25;;;10.80;99.90;;;;;;5033243;28;20049;-72
2022/01/03 12:04:09;;;;;;;41.88;5.05;;;10.90;99.90;;;;;;5033570;28;20444;-84
2022/01/03 12:06:35;;;;;;;27.42;3.88;;;10.80;99.90;;;;;;5017431;28;20477;-84
2022/01/03 12:09:10;;;;;;;29.50;3.65;;;10.80;99.90;;;;;;5033926;28;20041;-77
2022/01/03 12:11:53;;;;;;;30.80;4.13;;;10.90;99.90;;;;;;5033527;28;20049;-77
2022/01/03 12:14:23;;;;;;;29.55;3.40;;;11.00;99.90;;;;;;5034054;28;20091;-77
2022/01/03 12:17:01;;;;;;;29.40;3.50;;;11.10;99.90;;;;;;5017164;28;20045;-77
2022/01/03 12:19:32;;;;;;;29.80;4.00;;;11.10;99.90;;;;;;5033416;28;20077;-73
2022/01/03 12:22:06;;;;;;;26.65;3.90;;;11.00;99.90;;;;;;5033548;28;20052;-72
2022/01/03 12:24:34;;;;;;;25.73;4.07;;;11.10;99.90;;;;;;5017229;28;20137;-84
2022/01/03 12:27:12;;;;;;;27.13;3.53;;;10.90;99.90;;;;;;5016564;28;20132;-74
2022/01/03 12:29:56;;;;;;;33.80;5.28;;;10.90;99.90;;;;;;5033541;28;20053;-73
2022/01/03 12:32:23;;;;;;;28.08;3.95;;;10.90;99.90;;;;;;5034020;28;20045;-72
2022/01/03 12:35:16;;;;;;;31.08;4.00;;;10.90;99.90;;;;;;5016921;28;20055;-85
2022/01/03 12:37:44;;;;;;;29.38;3.60;;;10.80;99.90;;;;;;5033596;28;20049;-84
2022/01/03 12:40:16;;;;;;;28.67;3.80;;;10.70;99.90;;;;;;5033256;28;20045;-74
2022/01/03 12:42:53;;;;;;;32.72;4.18;;;10.90;99.90;;;;;;5033391;28;20037;-78
2022/01/03 12:45:34;;;;;;;32.75;3.95;;;11.00;99.90;;;;;;5033459;28;20053;-78
2022/01/03 12:48:09;;;;;;;32.88;3.92;;;11.10;99.90;;;;;;5032935;28;20053;-78
2022/01/03 12:50:41;;;;;;;31.73;3.90;;;11.20;99.90;;;;;;5032946;28;20104;-86
2022/01/03 12:53:31;;;;;;;30.38;3.72;;;11.10;99.90;;;;;;5033343;28;20037;-85
2022/01/03 12:56:00;;;;;;;25.30;3.83;;;11.10;99.90;;;;;;5033156;28;20049;-73
2022/01/03 12:58:25;;;;;;;30.90;3.72;;;11.00;99.90;;;;;;5033058;28;20115;-85
2022/01/03 13:01:10;;;;;;;18.05;3.13;;;11.10;99.90;;;;;;5032917;28;20423;-86
2022/01/03 13:03:39;;;;;;;32.45;4.07;;;11.00;99.90;;;;;;5015866;28;20454;-79
2022/01/03 13:06:33;;;;;;;28.48;3.30;;;11.10;99.90;;;;;;5033272;28;20049;-80
2022/01/03 13:09:02;;;;;;;39.20;4.75;;;10.90;99.90;;;;;;5032885;28;20045;-81
2022/01/03 13:11:32;;;;;;;29.17;3.28;;;10.90;99.90;;;;;;5032973;28;20477;-85